createdAt,value
2018-07-12T00:00:38.029Z,12.70
2018-07-12T00:03:06.026Z,12.60
2018-07-12T00:05:34.035Z,12.60
2018-07-12T00:08:01.963Z,12.70
2018-07-12T00:10:29.954Z,12.70
2018-07-12T00:12:57.890Z,12.70
2018-07-12T00:15:25.820Z,12.70
2018-07-12T00:17:53.829Z,12.70
2018-07-12T00:20:21.776Z,12.70
2018-07-12T00:22:49.709Z,12.70
2018-07-12T00:25:17.717Z,12.70
2018-07-12T00:27:45.668Z,12.70
2018-07-12T00:30:13.639Z,12.70
2018-07-12T00:32:41.608Z,12.70
2018-07-12T00:35:09.621Z,12.70
2018-07-12T00:37:37.571Z,12.70
2018-07-12T00:40:05.585Z,12.70
2018-07-12T00:42:33.520Z,12.70
2018-07-12T00:45:01.456Z,12.70
2018-07-12T00:47:29.419Z,12.70
2018-07-12T00:49:57.344Z,12.70
2018-07-12T00:52:25.280Z,12.70
2018-07-12T00:54:53.217Z,12.60
2018-07-12T00:57:21.261Z,12.60
2018-07-12T00:59:49.280Z,12.60
2018-07-12T01:02:17.264Z,12.60
2018-07-12T01:04:45.220Z,12.50
2018-07-12T01:07:13.185Z,12.50
2018-07-12T01:09:41.111Z,12.40
2018-07-12T01:12:09.039Z,12.30
2018-07-12T01:14:36.968Z,12.30
2018-07-12T01:17:04.900Z,12.30
2018-07-12T01:19:32.880Z,12.20
2018-07-12T01:22:00.832Z,12.20
2018-07-12T01:24:28.853Z,12.20
2018-07-12T01:26:56.795Z,12.20
2018-07-12T01:29:24.725Z,12.20
2018-07-12T01:31:52.676Z,12.20
2018-07-12T01:34:20.616Z,12.20
2018-07-12T01:36:48.600Z,12.10
2018-07-12T01:39:16.549Z,12.10
2018-07-12T01:41:44.468Z,12.10
2018-07-12T01:44:12.492Z,12.10
2018-07-12T01:46:40.468Z,12.20
2018-07-12T01:49:08.408Z,12.20
2018-07-12T01:51:36.362Z,12.10
2018-07-12T01:54:04.306Z,12.20
2018-07-12T01:56:32.248Z,12.20
2018-07-12T01:59:00.244Z,12.20
2018-07-12T02:01:28.174Z,12.20
2018-07-12T02:03:56.103Z,12.30
2018-07-12T02:06:24.060Z,12.30
2018-07-12T02:08:52.021Z,12.30
2018-07-12T02:11:19.972Z,12.30
2018-07-12T02:13:47.965Z,12.30
2018-07-12T02:16:15.899Z,12.20
2018-07-12T02:18:43.820Z,12.30
2018-07-12T02:21:11.792Z,12.30
2018-07-12T02:23:39.777Z,12.30
2018-07-12T02:26:07.751Z,12.30
2018-07-12T02:28:35.691Z,12.30
2018-07-12T02:31:03.617Z,12.20
2018-07-12T02:33:31.607Z,12.30
2018-07-12T02:35:59.545Z,12.30
2018-07-12T02:38:27.513Z,12.30
2018-07-12T02:40:55.446Z,12.30
2018-07-12T02:43:23.397Z,12.30
2018-07-12T02:45:51.357Z,12.30
2018-07-12T02:48:19.376Z,12.40
2018-07-12T02:50:47.476Z,12.30
2018-07-12T02:53:15.429Z,12.30
2018-07-12T02:55:43.474Z,12.30
2018-07-12T02:58:11.419Z,12.30
2018-07-12T03:00:39.403Z,12.30
2018-07-12T03:03:07.350Z,12.30
2018-07-12T03:05:35.372Z,12.30
2018-07-12T03:08:03.318Z,12.30
2018-07-12T03:10:31.261Z,12.40
2018-07-12T03:12:59.216Z,12.40
2018-07-12T03:15:27.235Z,12.30
2018-07-12T03:17:55.169Z,12.30
2018-07-12T03:20:23.132Z,12.20
2018-07-12T03:22:51.166Z,12.20
2018-07-12T03:25:19.092Z,12.10
2018-07-12T03:27:47.036Z,12.10
2018-07-12T03:30:15.000Z,12.00
2018-07-12T03:32:43.039Z,12.00
2018-07-12T03:35:10.978Z,12.00
2018-07-12T03:37:38.975Z,12.00
2018-07-12T03:40:06.949Z,11.90
2018-07-12T03:42:34.896Z,11.90
2018-07-12T03:45:02.817Z,12.00
2018-07-12T03:47:30.790Z,12.00
2018-07-12T03:49:58.716Z,12.00
2018-07-12T03:52:26.691Z,12.00
2018-07-12T03:54:54.719Z,12.10
2018-07-12T03:57:22.678Z,12.00
2018-07-12T03:59:50.601Z,12.10
2018-07-12T04:02:18.591Z,12.20
2018-07-12T04:04:46.563Z,12.20
2018-07-12T04:07:14.497Z,12.20
2018-07-12T04:09:42.463Z,12.30
2018-07-12T04:12:10.421Z,12.30
2018-07-12T04:14:38.379Z,12.40
2018-07-12T04:17:06.310Z,12.40
2018-07-12T04:19:34.297Z,12.40
2018-07-12T04:22:02.265Z,12.40
2018-07-12T04:24:30.215Z,12.40
2018-07-12T04:26:58.172Z,12.40
2018-07-12T04:29:26.127Z,12.50
2018-07-12T04:31:54.098Z,12.50
2018-07-12T04:34:22.053Z,12.50
2018-07-12T04:36:49.989Z,12.60
2018-07-12T04:39:17.976Z,12.70
2018-07-12T04:41:45.910Z,12.80
2018-07-12T04:44:13.908Z,12.80
2018-07-12T04:46:41.861Z,12.80
2018-07-12T04:49:09.870Z,12.90
2018-07-12T04:51:37.824Z,13.00
2018-07-12T04:54:05.773Z,13.10
2018-07-12T04:56:33.742Z,13.20
2018-07-12T04:59:01.676Z,13.10
2018-07-12T05:01:29.657Z,13.10
2018-07-12T05:03:57.767Z,13.00
2018-07-12T05:06:25.719Z,13.00
2018-07-12T05:08:53.762Z,13.00
2018-07-12T05:11:22.331Z,13.00
2018-07-12T05:13:50.560Z,13.00
2018-07-12T05:16:18.584Z,13.00
2018-07-12T05:18:46.506Z,13.10
2018-07-12T05:21:14.460Z,13.10
2018-07-12T05:23:42.468Z,13.10
2018-07-12T05:26:10.524Z,13.20
2018-07-12T05:28:38.505Z,13.20
2018-07-12T05:31:06.868Z,13.20
2018-07-12T05:33:34.855Z,13.20
2018-07-12T05:37:06.830Z,13.30
2018-07-12T05:39:35.935Z,13.30
2018-07-12T05:42:05.025Z,13.40
2018-07-12T05:44:34.089Z,13.40
2018-07-12T05:47:03.178Z,13.50
2018-07-12T05:49:32.565Z,13.60
2018-07-12T05:52:01.945Z,13.60
2018-07-12T05:54:32.248Z,13.60
2018-07-12T05:57:01.532Z,13.70
2018-07-12T05:59:30.833Z,13.70
2018-07-12T06:02:11.178Z,13.70
2018-07-12T06:04:40.687Z,13.80
2018-07-12T06:07:10.073Z,13.90
2018-07-12T06:09:39.377Z,13.90
2018-07-12T06:12:08.752Z,13.80
2018-07-12T06:14:38.123Z,13.80
2018-07-12T06:17:07.423Z,13.90
2018-07-12T06:19:36.799Z,13.90
2018-07-12T06:22:06.125Z,14.00
2018-07-12T06:24:36.034Z,14.00
2018-07-12T06:27:05.434Z,13.90
2018-07-12T06:29:34.793Z,13.90
2018-07-12T06:32:04.153Z,13.90
2018-07-12T06:34:33.477Z,13.70
2018-07-12T06:37:02.887Z,13.70
2018-07-12T06:39:32.145Z,13.70
2018-07-12T06:42:01.504Z,13.70
2018-07-12T06:44:30.841Z,13.70
2018-07-12T06:47:00.212Z,13.90
2018-07-12T06:49:29.652Z,14.20
2018-07-12T06:51:58.990Z,14.40
2018-07-12T06:54:28.364Z,14.50
2018-07-12T06:56:57.766Z,14.70
2018-07-12T06:59:27.123Z,14.90
2018-07-12T07:01:56.463Z,15.40
2018-07-12T07:04:25.817Z,15.80
2018-07-12T07:06:55.588Z,16.50
2018-07-12T07:09:25.029Z,17.00
2018-07-12T07:11:54.721Z,16.90
2018-07-12T07:14:24.219Z,16.80
2018-07-12T07:16:53.720Z,16.60
2018-07-12T07:19:23.128Z,16.50
2018-07-12T07:21:52.777Z,16.40
2018-07-12T07:24:22.266Z,16.30
2018-07-12T07:26:51.717Z,16.10
2018-07-12T07:29:21.099Z,16.10
2018-07-12T07:31:50.565Z,15.90
2018-07-12T07:34:19.971Z,15.70
2018-07-12T07:36:49.352Z,15.40
2018-07-12T07:39:18.661Z,15.20
2018-07-12T07:41:48.019Z,15.10
2018-07-12T07:44:17.371Z,15.10
2018-07-12T07:46:46.718Z,15.10
2018-07-12T07:49:16.137Z,15.10
2018-07-12T07:51:45.468Z,15.30
2018-07-12T07:54:14.790Z,15.40
2018-07-12T07:56:44.305Z,15.60
2018-07-12T07:59:13.635Z,15.80
2018-07-12T08:01:43.041Z,16.10
2018-07-12T08:04:12.488Z,16.50
2018-07-12T08:06:41.864Z,16.50
2018-07-12T08:09:11.273Z,16.40
2018-07-12T08:11:40.627Z,16.40
2018-07-12T08:14:10.012Z,16.50
2018-07-12T08:16:39.423Z,16.70
2018-07-12T08:19:08.820Z,16.90
2018-07-12T08:21:38.163Z,17.00
2018-07-12T08:24:07.550Z,16.90
2018-07-12T08:26:36.886Z,16.80
2018-07-12T08:29:06.177Z,16.70
2018-07-12T08:31:35.534Z,16.70
2018-07-12T08:34:04.916Z,16.70
2018-07-12T08:36:34.174Z,16.80
2018-07-12T08:39:03.624Z,16.90
2018-07-12T08:41:32.941Z,17.00
2018-07-12T08:44:02.261Z,16.90
2018-07-12T08:46:31.516Z,16.80
2018-07-12T08:49:00.936Z,16.80
2018-07-12T08:51:30.254Z,16.90
2018-07-12T08:53:59.592Z,17.40
2018-07-12T08:56:28.955Z,17.70
2018-07-12T08:58:58.230Z,17.90
2018-07-12T09:01:27.549Z,17.90
2018-07-12T09:03:56.920Z,17.70
2018-07-12T09:06:26.219Z,17.80
2018-07-12T09:08:55.579Z,17.50
2018-07-12T09:11:24.971Z,17.10
2018-07-12T09:13:54.272Z,17.00
2018-07-12T09:16:23.589Z,17.00
2018-07-12T09:18:52.964Z,17.40
2018-07-12T09:21:22.306Z,18.00
2018-07-12T09:23:51.617Z,18.50
2018-07-12T09:26:20.965Z,19.10
2018-07-12T09:28:50.277Z,19.30
2018-07-12T09:31:19.685Z,19.00
2018-07-12T09:33:49.083Z,18.80
2018-07-12T09:36:18.535Z,18.70
2018-07-12T09:38:50.145Z,18.70
2018-07-12T09:41:20.603Z,19.20
2018-07-12T09:43:50.455Z,19.40
2018-07-12T09:46:19.876Z,19.10
2018-07-12T09:48:50.478Z,18.30
2018-07-12T09:51:19.811Z,17.90
2018-07-12T09:53:49.188Z,17.90
2018-07-12T09:56:18.687Z,18.10
2018-07-12T09:58:47.926Z,18.50
2018-07-12T10:01:23.282Z,18.80
2018-07-12T10:03:53.765Z,19.00
2018-07-12T10:06:26.715Z,18.80
2018-07-12T10:08:56.702Z,18.80
2018-07-12T10:11:31.513Z,18.70
2018-07-12T10:14:06.142Z,18.70
2018-07-12T10:16:40.789Z,19.10
2018-07-12T10:19:10.140Z,19.60
2018-07-12T10:21:39.469Z,19.70
2018-07-12T10:24:08.874Z,19.70
2018-07-12T10:26:38.309Z,19.40
2018-07-12T10:29:07.688Z,19.30
2018-07-12T10:31:36.997Z,19.30
2018-07-12T10:34:06.377Z,19.30
2018-07-12T10:36:35.823Z,19.70
2018-07-12T10:39:07.725Z,19.70
2018-07-12T10:41:37.112Z,19.40
2018-07-12T10:44:06.635Z,19.10
2018-07-12T10:46:36.055Z,19.50
2018-07-12T10:49:05.476Z,20.10
2018-07-12T10:51:34.922Z,20.60
2018-07-12T10:54:04.483Z,20.50
2018-07-12T10:56:33.936Z,19.70
2018-07-12T10:59:03.599Z,19.20
2018-07-12T11:01:32.963Z,18.90
2018-07-12T11:04:02.664Z,19.30
2018-07-12T11:06:32.134Z,19.70
2018-07-12T11:09:01.489Z,19.40
2018-07-12T11:11:30.931Z,19.50
2018-07-12T11:14:00.391Z,19.30
2018-07-12T11:16:29.849Z,19.50
2018-07-12T11:18:59.264Z,20.00
2018-07-12T11:21:28.706Z,20.40
2018-07-12T11:23:58.117Z,20.80
2018-07-12T11:26:27.560Z,21.20
2018-07-12T11:28:57.145Z,21.00
2018-07-12T11:31:26.664Z,20.70
2018-07-12T11:33:56.105Z,20.60
2018-07-12T11:36:25.556Z,20.50
2018-07-12T11:38:55.060Z,20.50
2018-07-12T11:41:24.476Z,20.80
2018-07-12T11:43:53.927Z,21.00
2018-07-12T11:46:23.422Z,21.00
2018-07-12T11:48:52.845Z,21.10
2018-07-12T11:51:22.302Z,21.00
2018-07-12T11:53:51.848Z,21.00
2018-07-12T11:56:21.220Z,21.20
2018-07-12T11:58:50.712Z,21.50
2018-07-12T12:01:20.393Z,21.10
2018-07-12T12:03:49.964Z,20.80
2018-07-12T12:06:19.487Z,20.50
2018-07-12T12:08:48.912Z,20.30
2018-07-12T12:11:18.393Z,20.50
2018-07-12T12:13:47.914Z,20.70
2018-07-12T12:16:17.676Z,20.90
2018-07-12T12:18:47.116Z,21.10
2018-07-12T12:21:16.551Z,21.40
2018-07-12T12:23:46.204Z,21.40
2018-07-12T12:26:15.803Z,21.40
2018-07-12T12:28:45.270Z,21.50
2018-07-12T12:31:14.690Z,21.80
2018-07-12T12:33:44.334Z,22.00
2018-07-12T12:36:13.939Z,22.10
2018-07-12T12:38:43.489Z,22.20
2018-07-12T12:41:14.107Z,21.80
2018-07-12T12:43:43.754Z,20.90
2018-07-12T12:46:13.236Z,20.40
2018-07-12T12:48:42.973Z,20.60
2018-07-12T12:51:12.450Z,20.90
2018-07-12T12:53:41.912Z,20.90
2018-07-12T12:56:11.443Z,21.10
2018-07-12T12:58:41.022Z,21.40
2018-07-12T13:01:10.842Z,21.80
2018-07-12T13:03:40.332Z,22.10
2018-07-12T13:06:09.817Z,22.70
2018-07-12T13:08:39.230Z,23.00
2018-07-12T13:11:11.607Z,23.20
2018-07-12T13:13:41.123Z,23.60
2018-07-12T13:16:10.568Z,24.20
2018-07-12T13:18:40.010Z,24.00
2018-07-12T13:21:09.446Z,23.80
2018-07-12T13:23:38.889Z,23.60
2018-07-12T13:26:08.408Z,23.10
2018-07-12T13:28:37.820Z,22.30
2018-07-12T13:31:07.264Z,21.80
2018-07-12T13:33:36.705Z,22.00
2018-07-12T13:36:06.304Z,22.20
2018-07-12T13:38:35.752Z,23.10
2018-07-12T13:41:05.249Z,23.50
2018-07-12T13:43:34.682Z,23.60
2018-07-12T13:46:04.136Z,24.00
2018-07-12T13:48:33.560Z,24.20
2018-07-12T13:51:02.973Z,23.90
2018-07-12T13:53:32.428Z,23.60
2018-07-12T13:56:01.886Z,23.30
2018-07-12T13:58:31.346Z,23.30
2018-07-12T14:01:00.803Z,23.50
2018-07-12T14:03:30.321Z,23.90
2018-07-12T14:05:59.745Z,24.20
2018-07-12T14:08:29.219Z,24.30
2018-07-12T14:10:58.645Z,24.50
2018-07-12T14:13:28.007Z,24.90
2018-07-12T14:15:57.414Z,25.40
2018-07-12T14:18:26.820Z,25.10
2018-07-12T14:20:56.331Z,25.70
2018-07-12T14:23:25.752Z,25.70
2018-07-12T14:25:55.114Z,24.90
2018-07-12T14:28:24.456Z,25.00
2018-07-12T14:30:53.923Z,24.40
2018-07-12T14:33:23.374Z,24.30
2018-07-12T14:35:52.823Z,23.60
2018-07-12T14:38:22.422Z,23.00
2018-07-12T14:40:51.842Z,22.60
2018-07-12T14:43:21.235Z,22.40
2018-07-12T14:45:50.601Z,22.00
2018-07-12T14:48:20.068Z,21.70
2018-07-12T14:50:49.517Z,21.50
2018-07-12T14:53:18.945Z,21.40
2018-07-12T14:55:48.337Z,21.20
2018-07-12T14:58:17.953Z,20.90
2018-07-12T15:00:47.439Z,20.70
2018-07-12T15:03:16.894Z,20.30
2018-07-12T15:05:46.430Z,19.40
2018-07-12T15:08:16.066Z,18.70
2018-07-12T15:10:45.688Z,18.20
2018-07-12T15:13:16.112Z,17.80
2018-07-12T15:15:46.557Z,17.60
2018-07-12T15:18:17.056Z,17.50
2018-07-12T15:20:47.080Z,17.50
2018-07-12T15:23:16.647Z,17.60
2018-07-12T15:25:46.111Z,17.70
2018-07-12T15:28:15.627Z,17.80
2018-07-12T15:30:46.210Z,18.00
2018-07-12T15:33:15.751Z,18.20
2018-07-12T15:35:45.399Z,18.50
2018-07-12T15:38:14.935Z,18.70
2018-07-12T15:40:45.434Z,19.10
2018-07-12T15:43:14.871Z,19.40
2018-07-12T15:45:44.447Z,19.70
2018-07-12T15:48:13.922Z,19.90
2018-07-12T15:50:43.682Z,20.40
2018-07-12T15:53:14.130Z,20.90
2018-07-12T15:55:43.632Z,20.60
2018-07-12T15:58:13.021Z,20.00
2018-07-12T16:00:42.631Z,19.40
2018-07-12T16:03:12.104Z,17.20
2018-07-12T16:05:41.601Z,15.70
2018-07-12T16:08:11.097Z,15.10
2018-07-12T16:10:40.571Z,14.90
2018-07-12T16:13:10.064Z,14.90
2018-07-12T16:15:39.499Z,15.00
2018-07-12T16:18:09.121Z,15.20
2018-07-12T16:20:38.582Z,15.40
2018-07-12T16:23:08.119Z,15.50
2018-07-12T16:25:37.720Z,15.60
2018-07-12T16:28:07.241Z,15.70
2018-07-12T16:30:36.799Z,15.70
2018-07-12T16:33:06.287Z,15.80
2018-07-12T16:35:35.757Z,15.90
2018-07-12T16:38:05.226Z,15.90
2018-07-12T16:40:34.748Z,15.90
2018-07-12T16:43:04.306Z,16.00
2018-07-12T16:45:33.776Z,16.10
2018-07-12T16:48:03.233Z,16.10
2018-07-12T16:50:32.605Z,16.10
2018-07-12T16:53:02.304Z,16.20
2018-07-12T16:55:31.749Z,16.30
2018-07-12T16:58:01.233Z,16.50
2018-07-12T17:00:30.657Z,16.70
2018-07-12T17:03:00.239Z,17.10
2018-07-12T17:05:29.685Z,17.50
2018-07-12T17:07:59.248Z,18.50
2018-07-12T17:10:28.690Z,19.80
2018-07-12T17:12:58.114Z,20.80
2018-07-12T17:15:27.847Z,21.30
2018-07-12T17:17:57.277Z,21.10
2018-07-12T17:20:26.783Z,20.40
2018-07-12T17:22:56.210Z,19.80
2018-07-12T17:25:25.676Z,19.20
2018-07-12T17:27:55.193Z,18.90
2018-07-12T17:30:24.641Z,18.90
2018-07-12T17:32:54.180Z,19.00
2018-07-12T17:35:23.648Z,18.80
2018-07-12T17:37:53.162Z,18.30
2018-07-12T17:40:22.714Z,17.90
2018-07-12T17:42:53.205Z,17.70
2018-07-12T17:45:22.671Z,17.50
2018-07-12T17:47:52.218Z,17.40
2018-07-12T17:50:21.649Z,17.30
2018-07-12T17:52:51.535Z,17.20
2018-07-12T17:55:20.975Z,17.20
2018-07-12T17:57:50.399Z,17.00
2018-07-12T18:00:20.228Z,16.90
2018-07-12T18:02:49.956Z,16.90
2018-07-12T18:05:19.445Z,16.90
2018-07-12T18:07:48.805Z,16.80
2018-07-12T18:10:18.378Z,16.70
2018-07-12T18:12:47.968Z,16.70
2018-07-12T18:15:17.377Z,16.70
2018-07-12T18:17:46.765Z,16.60
2018-07-12T18:20:16.240Z,16.60
2018-07-12T18:22:45.655Z,16.50
2018-07-12T18:25:15.138Z,16.50
2018-07-12T18:27:44.584Z,16.40
2018-07-12T18:30:14.026Z,16.30
2018-07-12T18:32:43.445Z,16.20
2018-07-12T18:35:13.663Z,16.30
2018-07-12T18:37:43.145Z,16.20
2018-07-12T18:40:12.874Z,16.20
2018-07-12T18:42:42.364Z,16.20
2018-07-12T18:45:12.769Z,16.10
2018-07-12T18:47:42.454Z,16.20
2018-07-12T18:50:11.815Z,16.20
2018-07-12T18:52:41.302Z,16.20
2018-07-12T18:55:10.763Z,16.10
2018-07-12T18:57:40.185Z,16.10
2018-07-12T19:00:09.645Z,16.00
2018-07-12T19:02:39.316Z,16.00
2018-07-12T19:05:08.927Z,16.10
2018-07-12T19:07:38.623Z,16.00
2018-07-12T19:10:08.081Z,16.00
2018-07-12T19:12:37.496Z,16.00
2018-07-12T19:17:36.014Z,15.90
2018-07-12T19:20:05.712Z,15.90
2018-07-12T19:22:35.128Z,15.80
2018-07-12T19:25:04.642Z,15.80
2018-07-12T19:27:34.029Z,15.80
2018-07-12T19:30:03.506Z,15.80
2018-07-12T19:32:32.981Z,15.70
2018-07-12T19:35:02.564Z,15.60
2018-07-12T19:37:31.955Z,15.60
2018-07-12T19:40:01.389Z,15.50
2018-07-12T19:42:30.748Z,15.50
2018-07-12T19:45:00.201Z,15.40
2018-07-12T19:47:29.802Z,15.40
2018-07-12T19:49:59.281Z,15.40
2018-07-12T19:52:28.819Z,15.40
2018-07-12T19:54:58.451Z,15.40
2018-07-12T19:57:27.933Z,15.30
2018-07-12T19:59:57.361Z,15.30
2018-07-12T20:02:26.809Z,15.30
2018-07-12T20:04:56.204Z,15.30
2018-07-12T20:07:25.640Z,15.20
2018-07-12T20:09:55.061Z,15.20
2018-07-12T20:12:24.563Z,15.20
2018-07-12T20:14:54.042Z,15.10
2018-07-12T20:17:23.476Z,15.10
2018-07-12T20:19:52.904Z,15.10
2018-07-12T20:22:22.356Z,15.10
2018-07-12T20:24:51.872Z,15.00
2018-07-12T20:27:21.278Z,15.00
2018-07-12T20:29:50.745Z,14.90
2018-07-12T20:32:20.131Z,14.90
2018-07-12T20:34:49.586Z,14.90
2018-07-12T20:37:19.139Z,14.90
2018-07-12T20:39:48.648Z,14.90
2018-07-12T20:42:18.206Z,14.90
2018-07-12T20:44:47.643Z,14.90
2018-07-12T20:47:17.125Z,14.90
2018-07-12T20:49:46.623Z,14.70
2018-07-12T20:52:16.104Z,14.70
2018-07-12T20:54:45.561Z,14.60
2018-07-12T20:57:14.970Z,14.60
2018-07-12T20:59:44.423Z,14.60
2018-07-12T21:02:13.996Z,14.60
2018-07-12T21:04:43.429Z,14.50
2018-07-12T21:07:12.892Z,14.50
2018-07-12T21:09:42.382Z,14.50
2018-07-12T21:12:11.820Z,14.50
2018-07-12T21:14:41.260Z,14.50
2018-07-12T21:17:10.706Z,14.50
2018-07-12T21:19:40.151Z,14.50
2018-07-12T21:22:09.617Z,14.50
2018-07-12T21:24:39.039Z,14.40
2018-07-12T21:27:08.600Z,14.40
2018-07-12T21:29:38.050Z,14.40
2018-07-12T21:32:45.646Z,14.40
2018-07-12T21:38:33.090Z,14.30
2018-07-12T21:41:03.105Z,14.30
2018-07-12T21:43:33.127Z,14.30
2018-07-12T21:46:17.376Z,14.30
2018-07-12T21:48:47.712Z,14.30
2018-07-12T21:51:18.711Z,14.20
2018-07-12T21:53:48.623Z,14.20
2018-07-12T21:56:18.520Z,14.20
2018-07-12T21:58:48.193Z,14.20
2018-07-12T22:01:17.931Z,14.20
2018-07-12T22:03:47.568Z,14.20
2018-07-12T22:06:19.966Z,14.10
2018-07-12T22:08:49.664Z,14.10
2018-07-12T22:11:19.271Z,14.10
2018-07-12T22:13:49.112Z,14.00
2018-07-12T22:16:18.879Z,14.00
2018-07-12T22:18:48.496Z,14.00
2018-07-12T22:21:19.935Z,14.00
2018-07-12T22:23:49.772Z,14.00
2018-07-12T22:26:19.282Z,13.90
2018-07-12T22:28:49.113Z,13.90
2018-07-12T22:31:18.589Z,13.80
2018-07-12T22:34:03.475Z,13.80
2018-07-12T22:36:34.714Z,13.70
2018-07-12T22:39:05.021Z,13.60
2018-07-12T22:41:34.524Z,13.60
2018-07-12T22:46:33.231Z,13.40
2018-07-12T22:49:02.770Z,13.30
2018-07-12T22:51:32.402Z,13.20
2018-07-12T22:54:01.833Z,13.10
2018-07-12T22:56:31.357Z,13.00
2018-07-12T22:59:01.874Z,12.90
2018-07-12T23:01:32.096Z,12.90
2018-07-12T23:04:01.441Z,12.80
2018-07-12T23:08:59.521Z,12.70
2018-07-12T23:13:57.529Z,12.70
2018-07-12T23:18:55.399Z,12.60
2018-07-12T23:23:53.335Z,12.50
2018-07-12T23:26:29.103Z,12.40
2018-07-12T23:28:58.280Z,12.30
2018-07-12T23:31:27.593Z,12.30
2018-07-12T23:33:56.898Z,12.20
2018-07-12T23:36:26.105Z,12.20
2018-07-12T23:38:55.252Z,12.10
2018-07-12T23:43:53.392Z,12.10
2018-07-12T23:46:22.606Z,12.10
2018-07-12T23:48:51.923Z,11.90
2018-07-12T23:53:50.232Z,11.80
2018-07-12T23:58:48.732Z,11.70
